createdAt,value
2023-03-13T00:02:13.352Z,100.00
2023-03-13T00:07:22.478Z,100.00
2023-03-13T00:12:28.058Z,100.00
2023-03-13T00:17:38.241Z,100.00
2023-03-13T00:22:51.577Z,100.00
2023-03-13T00:27:56.637Z,100.00
2023-03-13T00:33:10.676Z,100.00
2023-03-13T00:38:19.453Z,100.00
2023-03-13T00:43:32.701Z,100.00
2023-03-13T00:48:42.342Z,100.00
2023-03-13T00:53:50.920Z,100.00
2023-03-13T00:59:06.873Z,95.38
2023-03-13T01:04:20.498Z,93.76
2023-03-13T01:09:28.198Z,90.09
2023-03-13T01:14:41.694Z,92.13
2023-03-13T01:19:53.547Z,93.34
2023-03-13T01:25:45.763Z,93.89
2023-03-13T01:32:38.173Z,100.00
2023-03-13T01:37:46.447Z,100.00
2023-03-13T01:43:09.876Z,100.00
2023-03-13T01:48:23.645Z,100.00
2023-03-13T01:53:37.555Z,100.00
2023-03-13T01:58:44.271Z,100.00
2023-03-13T02:04:01.230Z,100.00
2023-03-13T02:09:14.372Z,100.00
2023-03-13T02:14:29.540Z,100.00
2023-03-13T02:20:24.647Z,100.00
2023-03-13T02:25:55.502Z,100.00
2023-03-13T02:31:16.357Z,100.00
2023-03-13T02:36:27.195Z,100.00
2023-03-13T02:41:51.244Z,100.00
2023-03-13T02:47:00.306Z,100.00
2023-03-13T02:52:16.947Z,100.00
2023-03-13T02:57:27.462Z,100.00
2023-03-13T03:02:39.555Z,100.00
2023-03-13T03:07:44.565Z,100.00
2023-03-13T03:13:07.102Z,100.00
2023-03-13T03:18:16.634Z,100.00
2023-03-13T03:23:22.240Z,100.00
2023-03-13T03:28:36.341Z,100.00
2023-03-13T03:33:47.072Z,100.00
2023-03-13T03:38:55.371Z,100.00
2023-03-13T03:44:12.108Z,100.00
2023-03-13T03:49:48.169Z,100.00
2023-03-13T03:55:11.892Z,100.00
2023-03-13T04:00:41.904Z,100.00
2023-03-13T04:06:03.419Z,100.00
2023-03-13T04:11:08.161Z,100.00
2023-03-13T04:17:10.391Z,100.00
2023-03-13T04:22:48.279Z,100.00
2023-03-13T04:28:06.279Z,100.00
2023-03-13T04:33:35.141Z,100.00
2023-03-13T04:38:46.377Z,100.00
2023-03-13T04:44:09.151Z,100.00
2023-03-13T04:49:36.455Z,100.00
2023-03-13T04:55:06.880Z,100.00
2023-03-13T05:00:45.680Z,100.00
2023-03-13T05:06:17.033Z,100.00
2023-03-13T05:12:07.130Z,100.00
2023-03-13T05:17:39.972Z,100.00
2023-03-13T05:23:21.708Z,100.00
2023-03-13T05:28:37.471Z,100.00
2023-03-13T05:34:11.095Z,100.00
2023-03-13T05:39:19.002Z,100.00
2023-03-13T05:44:46.648Z,100.00
2023-03-13T05:49:56.556Z,100.00
2023-03-13T05:55:14.475Z,100.00
2023-03-13T06:00:45.872Z,100.00
2023-03-13T06:12:17.776Z,100.00
2023-03-13T06:17:26.682Z,100.00
2023-03-13T06:22:39.023Z,100.00
2023-03-13T06:27:48.979Z,100.00
2023-03-13T06:33:31.798Z,100.00
2023-03-13T06:38:42.301Z,100.00
2023-03-13T06:44:48.807Z,100.00
2023-03-13T07:14:13.411Z,100.00
2023-03-13T07:18:36.669Z,100.00
2023-03-13T08:27:12.902Z,100.00
2023-03-13T09:41:35.505Z,100.00
2023-03-13T09:46:46.283Z,100.00
2023-03-13T09:51:55.152Z,100.00
2023-03-13T09:57:08.063Z,100.00
2023-03-13T10:02:23.049Z,94.10
2023-03-13T10:07:27.675Z,91.71
2023-03-13T10:12:40.294Z,92.79
2023-03-13T10:17:44.749Z,97.88
2023-03-13T10:22:53.493Z,98.81
2023-03-13T10:28:03.025Z,100.00
2023-03-13T10:33:21.633Z,100.00
2023-03-13T10:38:25.981Z,100.00
2023-03-13T10:43:31.808Z,100.00
2023-03-13T10:48:38.745Z,100.00
2023-03-13T10:53:43.317Z,100.00
2023-03-13T10:58:51.495Z,100.00
2023-03-13T11:03:58.188Z,100.00
2023-03-13T11:16:54.291Z,100.00
2023-03-13T11:22:25.486Z,97.78
2023-03-13T11:27:37.591Z,100.00
2023-03-13T11:32:52.861Z,100.00
2023-03-13T11:38:19.707Z,99.92
2023-03-13T11:43:41.677Z,100.00
2023-03-13T11:49:29.798Z,98.30
2023-03-13T11:55:10.946Z,91.96
2023-03-13T12:00:24.596Z,87.72
2023-03-13T12:05:41.523Z,85.85
2023-03-13T12:10:52.123Z,77.09
2023-03-13T12:16:02.127Z,80.81
2023-03-13T12:21:16.987Z,83.74
2023-03-13T12:26:26.632Z,80.89
2023-03-13T12:31:37.686Z,81.50
2023-03-13T12:36:47.953Z,82.99
2023-03-13T12:42:07.894Z,88.28
2023-03-13T12:47:19.244Z,87.82
2023-03-13T12:52:51.860Z,82.62
2023-03-13T12:58:37.726Z,76.32
2023-03-13T13:03:51.900Z,75.13
2023-03-13T13:09:23.706Z,74.18
2023-03-13T13:15:06.579Z,74.58
2023-03-13T13:20:48.128Z,80.42
2023-03-13T13:25:55.329Z,85.95
2023-03-13T13:30:59.823Z,86.29
2023-03-13T13:36:31.108Z,84.16
2023-03-13T13:41:39.209Z,87.70
2023-03-13T13:46:47.340Z,83.82
2023-03-13T13:52:40.433Z,86.55
2023-03-13T13:57:46.663Z,86.26
2023-03-13T14:02:54.732Z,88.18
2023-03-13T14:08:02.079Z,90.81
2023-03-13T14:13:16.077Z,91.17
2023-03-13T14:18:25.659Z,94.02
2023-03-13T14:23:32.704Z,93.72
2023-03-13T14:28:41.267Z,96.23
2023-03-13T14:33:45.840Z,95.59
2023-03-13T14:38:55.353Z,96.16
2023-03-13T14:44:13.626Z,96.12
2023-03-13T14:49:21.167Z,96.73
2023-03-13T14:54:28.302Z,97.16
2023-03-13T14:59:34.464Z,96.55
2023-03-13T15:04:53.547Z,95.85
2023-03-13T15:09:58.247Z,92.65
2023-03-13T15:15:04.116Z,89.51
2023-03-13T15:20:09.904Z,92.41
2023-03-13T15:25:17.809Z,88.47
2023-03-13T15:30:24.357Z,91.23
2023-03-13T15:35:31.301Z,93.56
2023-03-13T15:40:36.317Z,94.63
2023-03-13T15:45:43.806Z,93.33
2023-03-13T15:50:51.317Z,97.75
2023-03-13T15:55:57.300Z,98.02
2023-03-13T16:01:03.496Z,97.93
2023-03-13T16:06:16.878Z,100.00
2023-03-13T16:11:21.672Z,100.00
2023-03-13T16:16:29.806Z,100.00
2023-03-13T16:21:36.269Z,99.99
2023-03-13T16:26:40.885Z,95.60
2023-03-13T16:31:46.766Z,96.98
2023-03-13T16:36:51.000Z,97.43
2023-03-13T16:41:55.419Z,94.15
2023-03-13T16:47:05.843Z,95.09
2023-03-13T16:52:15.498Z,94.31
2023-03-13T16:57:24.782Z,95.20
2023-03-13T17:02:30.986Z,96.86
2023-03-13T17:07:35.575Z,94.18
2023-03-13T17:12:39.963Z,94.56
2023-03-13T17:17:51.891Z,95.86
2023-03-13T17:22:57.630Z,95.43
2023-03-13T17:28:02.045Z,97.94
2023-03-13T17:33:08.331Z,96.75
2023-03-13T17:38:12.668Z,96.19
2023-03-13T17:43:17.142Z,96.58
2023-03-13T17:48:23.099Z,94.38
2023-03-13T17:53:27.175Z,92.34
2023-03-13T17:58:31.841Z,92.77
2023-03-13T18:03:37.865Z,93.17
2023-03-13T18:08:45.089Z,94.39
2023-03-13T18:13:49.898Z,92.72
2023-03-13T18:18:56.382Z,93.46
2023-03-13T18:24:00.959Z,92.92
2023-03-13T18:29:14.931Z,93.22
2023-03-13T18:34:21.363Z,93.63
2023-03-13T18:39:30.030Z,92.88
2023-03-13T18:44:34.748Z,94.59
2023-03-13T18:49:40.921Z,96.23
2023-03-13T18:54:45.608Z,95.12
2023-03-13T18:59:49.981Z,93.91
2023-03-13T19:04:55.773Z,95.05
2023-03-13T19:10:01.766Z,95.93
2023-03-13T19:15:07.245Z,94.05
2023-03-13T19:20:20.104Z,95.74
2023-03-13T19:25:25.013Z,95.12
2023-03-13T19:30:29.437Z,96.85
2023-03-13T19:35:35.188Z,97.53
2023-03-13T19:40:39.304Z,97.03
2023-03-13T19:45:43.664Z,97.97
2023-03-13T19:50:53.644Z,97.10
2023-03-13T19:55:58.615Z,98.83
2023-03-13T20:01:15.055Z,100.00
2023-03-13T20:06:25.038Z,100.00
2023-03-13T20:11:30.450Z,100.00
2023-03-13T20:16:35.438Z,100.00
2023-03-13T20:21:44.122Z,100.00
2023-03-13T20:26:48.465Z,100.00
2023-03-13T20:31:52.952Z,100.00
2023-03-13T20:37:00.168Z,100.00
2023-03-13T20:42:06.855Z,100.00
2023-03-13T20:47:11.289Z,100.00
2023-03-13T20:52:17.676Z,100.00
2023-03-13T20:57:22.020Z,100.00
2023-03-13T21:02:26.589Z,100.00
2023-03-13T21:07:32.864Z,100.00
2023-03-13T21:12:37.441Z,100.00
2023-03-13T21:17:41.980Z,100.00
2023-03-13T21:22:51.098Z,100.00
2023-03-13T21:27:55.687Z,100.00
2023-03-13T21:33:00.081Z,98.83
2023-03-13T21:38:05.935Z,97.80
2023-03-13T21:43:10.170Z,100.00
2023-03-13T21:48:15.466Z,99.56
2023-03-13T21:53:21.317Z,100.00
2023-03-13T21:58:25.795Z,98.61
2023-03-13T22:03:31.983Z,99.58
2023-03-13T22:08:37.774Z,98.09
2023-03-13T22:13:42.166Z,96.94
2023-03-13T22:18:46.429Z,97.52
2023-03-13T22:23:53.439Z,95.84
2023-03-13T22:28:57.778Z,95.94
2023-03-13T22:34:02.053Z,96.18
2023-03-13T22:39:07.862Z,95.34
2023-03-13T22:44:12.014Z,97.09
2023-03-13T22:49:16.536Z,91.29
2023-03-13T22:54:22.312Z,92.06
2023-03-13T22:59:26.493Z,89.97
2023-03-13T23:04:32.204Z,91.63
2023-03-13T23:09:38.044Z,87.50
2023-03-13T23:14:42.644Z,87.08
2023-03-13T23:19:47.380Z,84.81
2023-03-13T23:24:55.292Z,85.84
2023-03-13T23:30:01.915Z,85.29
2023-03-13T23:35:07.968Z,85.61
2023-03-13T23:40:17.399Z,83.59
2023-03-13T23:45:21.924Z,85.30
2023-03-13T23:50:26.303Z,85.60
2023-03-13T23:55:32.278Z,83.59
